Check out our new PWSWeather beta!
PWSweather.com
Personal Weather Stations
Station Observations
STPETERS
BroadstairsGB

BroadstairsGB

Lat: 51.37, Lon: 1.423

Elevation: 141

Station Type: WH1081

Latest ConditionsUpdated 11:30:01 AM GMT Thursday, Feb 27, 2020
Currently Today's Max Today's Min Today's Average
Temperature 38.7°F3.7°C 40.1°F4.5°C 37.8°F3.2°C 38.8°F3.8°C
Dew Point 16.4°F-8.7°C 17.7°F-7.9°C 15.6°F-9.1°C 16.5°F-8.6°C
Winds 10.6 mph N17.1 kmh N 12.5 mph -20.1 kmh - - 5.6 mph 9.0 kmh
Wind Gusts 14.5 mph23.3 kmh 17.4 mph28.0 kmh - -
Humidity 40% 40% 40% 40%
Pressure 29.39 in995.3 mb 29.69 in1005.4 mb 29.35 in993.9 mb -
Precipitation - 0.28 in7.1 mm - -
Hour Temp Dew Point Humidity Winds Wind Gusts Pressure Precip Precip Rate Daily Precip Total
11:30 AM 38.7°F3.7°C 16.4°F-8.7°C 40% 10.6 mph N17.1 kmh N 14.5 mph23.3 kmh 29.39 in995.3 mb 0.04 in1.0 mm 0.00 in0.0 mm 0.28 in7.1 mm
11:15 AM 38.5°F3.6°C 16.3°F-8.7°C 40% 7.3 mph N11.7 kmh N 10.7 mph17.2 kmh 29.39 in995.3 mb 0.04 in1.0 mm 0.00 in0.0 mm 0.27 in6.9 mm
11:00 AM 38.5°F3.6°C 16.3°F-8.7°C 40% 6.1 mph NNW9.8 kmh NNW 8.3 mph13.4 kmh 29.38 in994.9 mb 0.04 in1.0 mm 0.00 in0.0 mm 0.26 in6.6 mm
10:45 AM 40.1°F4.5°C 17.7°F-7.9°C 40% 4.3 mph N6.9 kmh N 8.3 mph13.4 kmh 29.37 in994.6 mb 0.04 in1.0 mm 0.00 in0.0 mm 0.25 in6.4 mm
10:30 AM 38.7°F3.7°C 16.4°F-8.7°C 40% 4.2 mph N6.8 kmh N 5.4 mph8.7 kmh 29.36 in994.2 mb 0.05 in1.3 mm 0.04 in1.0 mm 0.25 in6.4 mm
10:15 AM 39.2°F4.0°C 16.9°F-8.4°C 40% 1.0 mph NW1.6 kmh NW 1.6 mph2.6 kmh 29.36 in994.2 mb 0.04 in1.0 mm 0.00 in0.0 mm 0.24 in6.1 mm
10:00 AM 39.4°F4.1°C 17.1°F-8.3°C 40% 1.1 mph NNE1.8 kmh NNE 2.2 mph3.5 kmh 29.36 in994.2 mb 0.04 in1.0 mm 0.00 in0.0 mm 0.22 in5.6 mm
09:45 AM 39.4°F4.1°C 17.1°F-8.3°C 40% 2.3 mph S3.7 kmh S 5.4 mph8.7 kmh 29.35 in993.9 mb 0.04 in1.0 mm 0.08 in2.0 mm 0.21 in5.3 mm
09:30 AM 39.2°F4.0°C 16.9°F-8.4°C 40% 3.0 mph SSE4.8 kmh SSE 5.4 mph8.7 kmh 29.35 in993.9 mb 0.02 in0.5 mm 0.00 in0.0 mm 0.20 in5.1 mm
09:15 AM 39.0°F3.9°C 16.8°F-8.4°C 40% 6.3 mph SSE10.1 kmh SSE 8.3 mph13.4 kmh 29.35 in993.9 mb 0.04 in1.0 mm 0.08 in2.0 mm 0.20 in5.1 mm
09:00 AM 39.0°F3.9°C 16.8°F-8.4°C 40% 6.9 mph SSE11.1 kmh SSE 9.8 mph15.8 kmh 29.35 in993.9 mb 0.02 in0.5 mm 0.00 in0.0 mm 0.19 in4.8 mm
08:45 AM 39.0°F3.9°C 16.8°F-8.4°C 40% 8.6 mph SSE13.8 kmh SSE 11.4 mph18.3 kmh 29.36 in994.2 mb 0.02 in0.5 mm 0.04 in1.0 mm 0.18 in4.6 mm
08:30 AM 39.0°F3.9°C 16.8°F-8.4°C 40% 8.6 mph SSE13.8 kmh SSE 12.1 mph19.5 kmh 29.36 in994.2 mb 0.01 in0.3 mm 0.00 in0.0 mm 0.17 in4.3 mm
08:15 AM 39.2°F4.0°C 16.9°F-8.4°C 40% 9.2 mph S14.8 kmh S 13.6 mph21.9 kmh 29.36 in994.2 mb 0.02 in0.5 mm 0.00 in0.0 mm 0.17 in4.3 mm
08:00 AM 39.6°F4.2°C 17.3°F-8.2°C 40% 10.6 mph S17.1 kmh S 15.2 mph24.5 kmh 29.38 in994.9 mb 0.04 in1.0 mm 0.00 in0.0 mm 0.17 in4.3 mm
07:45 AM 39.6°F4.2°C 17.3°F-8.2°C 40% 11.9 mph S19.2 kmh S 16.8 mph27.0 kmh 29.38 in994.9 mb 0.04 in1.0 mm 0.00 in0.0 mm 0.15 in3.8 mm
07:30 AM 39.6°F4.2°C 17.3°F-8.2°C 40% 12.5 mph S20.1 kmh S 17.4 mph28.0 kmh 29.38 in994.9 mb 0.05 in1.3 mm 0.04 in1.0 mm 0.15 in3.8 mm
07:15 AM 38.7°F3.7°C 16.4°F-8.7°C 40% 3.9 mph S6.3 kmh S 6.9 mph11.1 kmh 29.39 in995.3 mb 0.04 in1.0 mm 0.00 in0.0 mm 0.14 in3.6 mm
07:00 AM 38.3°F3.5°C 16.1°F-8.8°C 40% 2.6 mph SE4.2 kmh SE 3.8 mph6.1 kmh 29.40 in995.6 mb 0.04 in1.0 mm 0.00 in0.0 mm 0.13 in3.3 mm
06:45 AM 38.1°F3.4°C 16.0°F-8.9°C 40% 4.5 mph SE7.2 kmh SE 6.0 mph9.7 kmh 29.41 in995.9 mb 0.04 in1.0 mm 0.00 in0.0 mm 0.12 in3.0 mm
06:30 AM 38.3°F3.5°C 16.1°F-8.8°C 40% 5.9 mph S9.5 kmh S 8.3 mph13.4 kmh 29.42 in996.3 mb 0.04 in1.0 mm 0.00 in0.0 mm 0.11 in2.8 mm
06:15 AM 38.3°F3.5°C 16.1°F-8.8°C 40% 5.6 mph SSE9.0 kmh SSE 6.9 mph11.1 kmh 29.43 in996.6 mb 0.05 in1.3 mm 0.00 in0.0 mm 0.11 in2.8 mm
06:00 AM 38.3°F3.5°C 16.1°F-8.8°C 40% 6.8 mph S10.9 kmh S 9.2 mph14.8 kmh 29.45 in997.3 mb 0.05 in1.3 mm 0.00 in0.0 mm 0.09 in2.3 mm
05:45 AM 38.3°F3.5°C 16.1°F-8.8°C 40% 4.6 mph S7.4 kmh S 6.9 mph11.1 kmh 29.46 in997.6 mb 0.05 in1.3 mm 0.00 in0.0 mm 0.08 in2.0 mm
05:30 AM 38.7°F3.7°C 16.4°F-8.7°C 40% 8.5 mph S13.7 kmh S 12.1 mph19.5 kmh 29.47 in998.0 mb 0.05 in1.3 mm 0.00 in0.0 mm 0.07 in1.8 mm
05:15 AM 39.0°F3.9°C 16.8°F-8.4°C 40% 6.1 mph S9.8 kmh S 7.6 mph12.2 kmh 29.48 in998.3 mb 0.05 in1.3 mm 0.04 in1.0 mm 0.06 in1.5 mm
05:00 AM 39.4°F4.1°C 17.1°F-8.3°C 40% 6.5 mph S10.5 kmh S 9.2 mph14.8 kmh 29.50 in999.0 mb 0.04 in1.0 mm 0.00 in0.0 mm 0.05 in1.3 mm
04:45 AM 39.4°F4.1°C 17.1°F-8.3°C 40% 4.9 mph S7.9 kmh S 8.3 mph13.4 kmh 29.51 in999.3 mb 0.04 in1.0 mm 0.08 in2.0 mm 0.04 in1.0 mm
04:30 AM 39.2°F4.0°C 16.9°F-8.4°C 40% 3.8 mph SSE6.1 kmh SSE 4.5 mph7.2 kmh 29.51 in999.3 mb 0.02 in0.5 mm 0.04 in1.0 mm 0.02 in0.5 mm
04:15 AM 39.4°F4.1°C 17.1°F-8.3°C 40% 5.3 mph S8.5 kmh S 6.0 mph9.7 kmh 29.52 in999.7 mb 0.01 in0.3 mm 0.00 in0.0 mm 0.01 in0.3 mm
04:00 AM 39.4°F4.1°C 17.1°F-8.3°C 40% 6.9 mph S11.1 kmh S 9.8 mph15.8 kmh 29.54 in1000.3 mb 0.01 in0.3 mm 0.01 in0.3 mm 0.01 in0.3 mm
03:45 AM 39.4°F4.1°C 17.1°F-8.3°C 40% 9.6 mph S15.4 kmh S 12.1 mph19.5 kmh 29.55 in1000.7 mb 0.00 in0.0 mm 0.00 in0.0 mm 0.00 in0.0 mm
03:30 AM 39.2°F4.0°C 16.9°F-8.4°C 40% 3.7 mph S6.0 kmh S 4.5 mph7.2 kmh 29.56 in1001.0 mb 0.00 in0.0 mm 0.00 in0.0 mm 0.00 in0.0 mm
03:15 AM 38.8°F3.8°C 16.6°F-8.6°C 40% 4.6 mph S7.4 kmh S 5.4 mph8.7 kmh 29.57 in1001.4 mb 0.00 in0.0 mm 0.00 in0.0 mm 0.00 in0.0 mm
03:00 AM 38.7°F3.7°C 16.4°F-8.7°C 40% 3.7 mph S6.0 kmh S 4.5 mph7.2 kmh 29.58 in1001.7 mb 0.00 in0.0 mm 0.00 in0.0 mm 0.00 in0.0 mm
02:45 AM 38.5°F3.6°C 16.3°F-8.7°C 40% 3.6 mph S5.8 kmh S 4.5 mph7.2 kmh 29.59 in1002.0 mb 0.00 in0.0 mm 0.00 in0.0 mm 0.00 in0.0 mm
02:30 AM 38.3°F3.5°C 16.1°F-8.8°C 40% 4.5 mph S7.2 kmh S 6.0 mph9.7 kmh 29.60 in1002.4 mb 0.00 in0.0 mm 0.00 in0.0 mm 0.00 in0.0 mm
02:15 AM 38.3°F3.5°C 16.1°F-8.8°C 40% 5.1 mph S8.2 kmh S 6.9 mph11.1 kmh 29.62 in1003.0 mb 0.00 in0.0 mm 0.00 in0.0 mm 0.00 in0.0 mm
02:00 AM 38.3°F3.5°C 16.1°F-8.8°C 40% 4.7 mph S7.6 kmh S 6.0 mph9.7 kmh 29.63 in1003.4 mb 0.00 in0.0 mm 0.00 in0.0 mm 0.00 in0.0 mm
01:45 AM 38.1°F3.4°C 16.0°F-8.9°C 40% 4.6 mph SSW7.4 kmh SSW 6.9 mph11.1 kmh 29.64 in1003.7 mb 0.00 in0.0 mm 0.00 in0.0 mm 0.00 in0.0 mm
01:30 AM 37.9°F3.3°C 15.8°F-9.0°C 40% 5.2 mph S8.4 kmh S 6.9 mph11.1 kmh 29.65 in1004.1 mb 0.00 in0.0 mm 0.00 in0.0 mm 0.00 in0.0 mm
01:15 AM 38.1°F3.4°C 16.0°F-8.9°C 40% 3.8 mph SW6.1 kmh SW 5.4 mph8.7 kmh 29.66 in1004.4 mb 0.00 in0.0 mm 0.00 in0.0 mm 0.00 in0.0 mm
01:00 AM 38.1°F3.4°C 16.0°F-8.9°C 40% 3.9 mph W6.3 kmh W 5.4 mph8.7 kmh 29.66 in1004.4 mb 0.00 in0.0 mm 0.00 in0.0 mm 0.00 in0.0 mm
12:45 AM 37.9°F3.3°C 15.8°F-9.0°C 40% 4.2 mph WSW6.8 kmh WSW 6.0 mph9.7 kmh 29.67 in1004.7 mb 0.00 in0.0 mm 0.00 in0.0 mm 0.00 in0.0 mm
12:30 AM 37.8°F3.2°C 15.6°F-9.1°C 40% 4.5 mph SW7.2 kmh SW 5.4 mph8.7 kmh 29.68 in1005.1 mb 0.00 in0.0 mm 0.00 in0.0 mm 0.00 in0.0 mm
12:15 AM 37.8°F3.2°C 15.6°F-9.1°C 40% 4.3 mph W6.9 kmh W 6.9 mph11.1 kmh 29.68 in1005.1 mb 0.00 in0.0 mm 0.00 in0.0 mm 0.00 in0.0 mm
12:00 AM 37.9°F3.3°C 15.8°F-9.0°C 40% 3.5 mph WSW5.6 kmh WSW 5.4 mph8.7 kmh 29.69 in1005.4 mb 0.00 in0.0 mm 0.00 in0.0 mm 0.00 in0.0 mm